createdAt,value
2018-07-27T00:01:48.915Z,25.20
2018-07-27T00:04:16.377Z,25.20
2018-07-27T00:06:43.841Z,25.20
2018-07-27T00:09:12.607Z,25.20
2018-07-27T00:11:40.484Z,25.10
2018-07-27T00:14:10.121Z,25.10
2018-07-27T00:16:37.585Z,25.10
2018-07-27T00:19:05.287Z,25.10
2018-07-27T00:21:32.949Z,25.00
2018-07-27T00:24:00.482Z,25.00
2018-07-27T00:26:27.949Z,24.90
2018-07-27T00:28:55.480Z,24.90
2018-07-27T00:31:23.111Z,24.90
2018-07-27T00:33:50.575Z,24.90
2018-07-27T00:36:18.101Z,24.90
2018-07-27T00:38:45.525Z,24.80
2018-07-27T00:41:13.296Z,24.80
2018-07-27T00:43:40.733Z,24.90
2018-07-27T00:46:08.190Z,24.90
2018-07-27T00:48:35.633Z,24.90
2018-07-27T00:51:03.074Z,24.90
2018-07-27T00:53:30.672Z,24.80
2018-07-27T00:55:58.120Z,24.80
2018-07-27T00:58:25.553Z,24.80
2018-07-27T01:00:53.015Z,24.70
2018-07-27T01:03:20.471Z,24.70
2018-07-27T01:05:47.952Z,24.80
2018-07-27T01:08:15.453Z,24.60
2018-07-27T01:10:42.973Z,24.70
2018-07-27T01:15:44.485Z,24.60
2018-07-27T01:18:11.953Z,24.60
2018-07-27T01:20:39.742Z,24.50
2018-07-27T01:23:07.337Z,24.50
2018-07-27T01:25:34.780Z,24.60
2018-07-27T01:28:02.337Z,24.60
2018-07-27T01:30:29.800Z,24.50
2018-07-27T01:32:57.400Z,24.50
2018-07-27T01:35:24.852Z,24.60
2018-07-27T01:37:52.340Z,24.50
2018-07-27T01:40:19.953Z,24.50
2018-07-27T01:42:47.514Z,24.50
2018-07-27T01:45:14.965Z,24.50
2018-07-27T01:47:42.597Z,24.50
2018-07-27T01:50:10.098Z,24.40
2018-07-27T01:52:37.564Z,24.50
2018-07-27T01:55:05.087Z,24.40
2018-07-27T01:57:32.550Z,24.20
2018-07-27T02:00:00.040Z,24.20
2018-07-27T02:02:27.564Z,24.20
2018-07-27T02:04:55.033Z,24.20
2018-07-27T02:07:22.494Z,24.10
2018-07-27T02:09:49.964Z,24.10
2018-07-27T02:12:17.493Z,24.10
2018-07-27T02:14:44.948Z,24.10
2018-07-27T02:17:12.521Z,24.10
2018-07-27T02:19:39.969Z,24.10
2018-07-27T02:22:07.501Z,24.10
2018-07-27T02:24:34.950Z,24.00
2018-07-27T02:27:02.533Z,24.00
2018-07-27T02:29:29.969Z,23.90
2018-07-27T02:31:57.446Z,23.90
2018-07-27T02:34:26.033Z,23.90
2018-07-27T02:36:53.481Z,23.80
2018-07-27T02:39:20.921Z,23.80
2018-07-27T02:41:48.354Z,23.80
2018-07-27T02:44:21.726Z,23.70
2018-07-27T02:46:49.132Z,23.70
2018-07-27T02:49:16.565Z,23.60
2018-07-27T02:51:44.009Z,23.50
2018-07-27T02:54:11.442Z,23.50
2018-07-27T02:56:38.872Z,23.40
2018-07-27T02:59:06.328Z,23.30
2018-07-27T03:01:33.753Z,23.20
2018-07-27T03:04:01.209Z,23.20
2018-07-27T03:06:28.682Z,23.00
2018-07-27T03:08:56.122Z,23.10
2018-07-27T03:11:23.561Z,23.00
2018-07-27T03:13:51.104Z,23.00
2018-07-27T03:16:18.541Z,22.90
2018-07-27T03:18:46.108Z,22.80
2018-07-27T03:21:13.547Z,22.80
2018-07-27T03:23:41.006Z,22.80
2018-07-27T03:26:08.582Z,22.70
2018-07-27T03:28:36.049Z,22.50
2018-07-27T03:31:03.493Z,22.50
2018-07-27T03:33:30.941Z,22.40
2018-07-27T03:35:58.380Z,22.30
2018-07-27T03:38:25.901Z,22.30
2018-07-27T03:40:53.335Z,22.20
2018-07-27T03:43:20.796Z,22.20
2018-07-27T03:45:48.319Z,22.10
2018-07-27T03:48:15.765Z,22.00
2018-07-27T03:50:43.180Z,22.00
2018-07-27T03:53:10.959Z,21.90
2018-07-27T03:55:38.452Z,21.80
2018-07-27T03:58:05.921Z,21.90
2018-07-27T04:00:33.500Z,21.80
2018-07-27T04:03:00.933Z,21.70
2018-07-27T04:05:28.653Z,21.60
2018-07-27T04:07:56.320Z,21.60
2018-07-27T04:10:23.777Z,21.60
2018-07-27T04:12:51.208Z,21.60
2018-07-27T04:15:18.745Z,21.70
2018-07-27T04:17:50.805Z,21.60
2018-07-27T04:20:18.373Z,21.60
2018-07-27T04:22:45.900Z,21.60
2018-07-27T04:25:13.338Z,21.60
2018-07-27T04:27:40.929Z,21.60
2018-07-27T04:30:08.596Z,21.70
2018-07-27T04:32:36.086Z,21.60
2018-07-27T04:35:03.544Z,21.60
2018-07-27T04:37:30.989Z,21.80
2018-07-27T04:39:58.634Z,21.80
2018-07-27T04:42:26.070Z,21.80
2018-07-27T04:44:53.527Z,21.80
2018-07-27T04:47:21.128Z,21.90
2018-07-27T04:49:48.562Z,22.00
2018-07-27T04:52:16.005Z,22.10
2018-07-27T04:54:43.459Z,22.20
2018-07-27T04:57:10.889Z,22.30
2018-07-27T04:59:38.420Z,22.40
2018-07-27T05:02:06.344Z,22.40
2018-07-27T05:04:35.003Z,22.40
2018-07-27T05:07:02.412Z,22.50
2018-07-27T05:09:29.860Z,22.40
2018-07-27T05:11:58.432Z,22.40
2018-07-27T05:14:27.037Z,22.50
2018-07-27T05:16:54.741Z,22.60
2018-07-27T05:19:22.376Z,22.70
2018-07-27T05:21:49.807Z,22.80
2018-07-27T05:24:17.256Z,22.90
2018-07-27T05:26:44.676Z,22.90
2018-07-27T05:29:12.181Z,23.00
2018-07-27T05:31:39.643Z,23.10
2018-07-27T05:34:07.077Z,23.30
2018-07-27T05:36:34.532Z,23.40
2018-07-27T05:39:01.969Z,23.60
2018-07-27T05:41:29.401Z,23.70
2018-07-27T05:43:56.849Z,23.80
2018-07-27T05:46:24.319Z,23.90
2018-07-27T05:48:51.765Z,24.00
2018-07-27T05:51:19.394Z,24.10
2018-07-27T05:53:46.830Z,24.30
2018-07-27T05:56:14.273Z,24.50
2018-07-27T05:58:41.695Z,24.60
2018-07-27T06:01:09.168Z,24.60
2018-07-27T06:03:36.611Z,24.80
2018-07-27T06:06:04.068Z,25.00
2018-07-27T06:08:31.512Z,25.10
2018-07-27T06:10:58.977Z,25.30
2018-07-27T06:13:26.406Z,25.40
2018-07-27T06:15:53.909Z,25.60
2018-07-27T06:18:21.321Z,25.70
2018-07-27T06:20:48.789Z,25.80
2018-07-27T06:23:16.266Z,25.90
2018-07-27T06:25:43.744Z,26.00
2018-07-27T06:28:11.200Z,26.10
2018-07-27T06:30:38.621Z,26.30
2018-07-27T06:33:06.103Z,26.40
2018-07-27T06:35:33.561Z,26.50
2018-07-27T06:38:01.178Z,26.70
2018-07-27T06:40:28.619Z,26.90
2018-07-27T06:42:56.089Z,27.10
2018-07-27T06:45:23.525Z,27.30
2018-07-27T06:47:50.975Z,27.40
2018-07-27T06:50:18.586Z,27.30
2018-07-27T06:52:46.043Z,27.50
2018-07-27T06:55:13.500Z,27.70
2018-07-27T06:57:40.945Z,27.90
2018-07-27T07:00:08.382Z,28.10
2018-07-27T07:02:35.813Z,28.20
2018-07-27T07:05:03.274Z,28.30
2018-07-27T07:07:30.712Z,28.50
2018-07-27T07:09:58.156Z,28.80
2018-07-27T07:12:25.609Z,29.00
2018-07-27T07:14:53.093Z,29.20
2018-07-27T07:17:20.709Z,29.50
2018-07-27T07:19:48.129Z,29.40
2018-07-27T07:22:15.568Z,29.60
2018-07-27T07:27:10.236Z,30.00
2018-07-27T07:29:38.018Z,30.00
2018-07-27T07:32:05.464Z,30.10
2018-07-27T07:34:32.899Z,30.40
2018-07-27T07:37:00.361Z,30.60
2018-07-27T07:39:27.781Z,31.10
2018-07-27T07:41:55.227Z,31.30
2018-07-27T07:44:22.925Z,31.40
2018-07-27T07:46:51.518Z,31.40
2018-07-27T07:49:18.972Z,31.50
2018-07-27T07:51:46.420Z,31.70
2018-07-27T07:54:13.989Z,32.10
2018-07-27T07:56:41.413Z,32.20
2018-07-27T07:59:08.829Z,32.30
2018-07-27T08:01:36.253Z,32.00
2018-07-27T08:04:03.669Z,32.50
2018-07-27T08:06:31.096Z,32.70
2018-07-27T08:08:58.519Z,33.20
2018-07-27T08:11:26.065Z,33.50
2018-07-27T08:13:53.484Z,33.60
2018-07-27T08:16:20.915Z,33.20
2018-07-27T08:18:48.357Z,33.10
2018-07-27T08:21:20.281Z,33.00
2018-07-27T08:23:47.909Z,33.40
2018-07-27T08:26:48.593Z,33.30
2018-07-27T08:29:17.381Z,33.10
2018-07-27T08:31:46.158Z,33.50
2018-07-27T08:34:14.423Z,33.80
2018-07-27T08:36:41.986Z,34.00
2018-07-27T08:39:10.297Z,34.20
2018-07-27T08:41:38.140Z,34.60
2018-07-27T08:44:05.892Z,34.90
2018-07-27T08:46:33.488Z,35.10
2018-07-27T08:49:00.909Z,34.80
2018-07-27T08:51:28.354Z,35.30
2018-07-27T08:53:56.135Z,35.60
2018-07-27T08:56:23.626Z,35.50
2018-07-27T08:58:51.496Z,35.80
2018-07-27T09:01:18.943Z,35.70
2018-07-27T09:03:46.935Z,35.80
2018-07-27T09:08:41.904Z,35.20
2018-07-27T09:11:09.330Z,35.50
2018-07-27T09:13:36.752Z,35.40
2018-07-27T09:16:04.289Z,35.80
2018-07-27T09:18:31.873Z,36.20
2018-07-27T09:20:59.290Z,36.40
2018-07-27T09:23:26.708Z,36.80
2018-07-27T09:25:54.413Z,36.90
2018-07-27T09:28:21.873Z,37.10
2018-07-27T09:30:49.308Z,37.20
2018-07-27T09:33:16.747Z,37.10
2018-07-27T09:35:44.213Z,37.50
2018-07-27T09:38:11.650Z,37.40
2018-07-27T09:40:39.119Z,37.00
2018-07-27T09:43:06.518Z,36.70
2018-07-27T09:45:33.959Z,36.40
2018-07-27T09:48:01.398Z,36.60
2018-07-27T09:50:28.930Z,37.10
2018-07-27T09:52:56.385Z,37.50
2018-07-27T09:55:23.941Z,37.20
2018-07-27T09:57:51.416Z,37.20
2018-07-27T10:00:24.326Z,37.50
2018-07-27T10:02:52.445Z,37.80
2018-07-27T10:05:19.883Z,37.10
2018-07-27T10:07:47.343Z,37.60
2018-07-27T10:10:14.821Z,38.00
2018-07-27T10:12:42.255Z,37.80
2018-07-27T10:15:09.766Z,38.10
2018-07-27T10:17:37.313Z,37.90
2018-07-27T10:20:04.767Z,37.40
2018-07-27T10:22:32.198Z,37.20
2018-07-27T10:24:59.633Z,37.20
2018-07-27T10:27:27.072Z,37.30
2018-07-27T10:29:54.504Z,37.10
2018-07-27T10:32:22.032Z,37.00
2018-07-27T10:34:49.470Z,37.20
2018-07-27T10:37:16.890Z,37.50
2018-07-27T10:39:44.332Z,37.70
2018-07-27T10:42:11.761Z,37.60
2018-07-27T10:44:39.207Z,37.70
2018-07-27T10:47:07.249Z,37.50
2018-07-27T10:49:34.805Z,37.40
2018-07-27T10:52:02.326Z,37.60
2018-07-27T10:54:29.749Z,37.90
2018-07-27T10:56:57.171Z,37.70
2018-07-27T10:59:24.598Z,37.60
2018-07-27T11:01:52.009Z,37.70
2018-07-27T11:04:19.441Z,38.00
2018-07-27T11:06:46.943Z,37.90
2018-07-27T11:09:14.360Z,37.80
2018-07-27T11:11:41.878Z,38.00
2018-07-27T11:14:09.292Z,38.20
2018-07-27T11:16:36.772Z,38.20
2018-07-27T11:19:04.195Z,38.00
2018-07-27T11:21:31.613Z,37.90
2018-07-27T11:23:59.054Z,37.80
2018-07-27T11:26:26.600Z,37.50
2018-07-27T11:28:54.010Z,37.40
2018-07-27T11:31:21.515Z,37.20
2018-07-27T11:33:49.077Z,37.20
2018-07-27T11:36:16.493Z,37.50
2018-07-27T11:38:43.936Z,37.30
2018-07-27T11:41:11.361Z,37.20
2018-07-27T11:43:38.789Z,37.30
2018-07-27T11:46:06.257Z,36.70
2018-07-27T11:48:33.728Z,37.00
2018-07-27T11:51:01.142Z,37.00
2018-07-27T11:53:28.560Z,37.10
2018-07-27T11:55:56.152Z,37.40
2018-07-27T11:58:23.607Z,37.40
2018-07-27T12:00:51.039Z,37.20
2018-07-27T12:03:18.563Z,37.30
2018-07-27T12:05:45.977Z,37.20
2018-07-27T12:10:40.741Z,37.00
2018-07-27T12:13:08.281Z,37.10
2018-07-27T12:15:35.710Z,37.30
2018-07-27T12:18:03.134Z,36.80
2018-07-27T12:20:30.664Z,36.30
2018-07-27T12:22:58.059Z,36.30
2018-07-27T12:25:25.486Z,36.10
2018-07-27T12:27:53.025Z,36.20
2018-07-27T12:30:20.476Z,36.30
2018-07-27T12:32:47.966Z,36.40
2018-07-27T12:35:15.389Z,36.40
2018-07-27T12:37:42.833Z,36.50
2018-07-27T12:40:10.291Z,36.50
2018-07-27T12:42:37.814Z,36.50
2018-07-27T12:45:05.252Z,36.30
2018-07-27T12:47:32.601Z,36.30
2018-07-27T12:50:00.076Z,36.20
2018-07-27T12:52:27.499Z,36.00
2018-07-27T12:54:54.937Z,35.70
2018-07-27T12:57:22.373Z,35.50
2018-07-27T12:59:49.806Z,35.60
2018-07-27T13:02:17.337Z,35.60
2018-07-27T13:04:44.793Z,35.60
2018-07-27T13:07:12.409Z,35.70
2018-07-27T13:09:39.850Z,35.70
2018-07-27T13:12:07.288Z,35.80
2018-07-27T13:17:02.391Z,35.80
2018-07-27T13:19:29.863Z,35.70
2018-07-27T13:21:57.371Z,35.70
2018-07-27T13:26:52.212Z,35.50
2018-07-27T13:29:19.651Z,35.50
2018-07-27T13:31:49.507Z,35.50
2018-07-27T13:37:04.933Z,35.20
2018-07-27T13:39:33.125Z,35.10
2018-07-27T13:42:01.597Z,34.90
2018-07-27T13:44:29.881Z,34.90
2018-07-27T13:46:57.737Z,34.90
2018-07-27T13:49:25.504Z,34.80
2018-07-27T13:51:52.976Z,34.80
2018-07-27T13:54:20.441Z,35.00
2018-07-27T13:56:48.373Z,35.00
2018-07-27T13:59:16.660Z,35.10
2018-07-27T14:04:11.732Z,35.20
2018-07-27T14:06:39.182Z,35.20
2018-07-27T14:09:07.585Z,35.00
2018-07-27T14:11:35.033Z,35.20
2018-07-27T14:14:02.662Z,35.10
2018-07-27T14:16:30.132Z,35.10
2018-07-27T14:18:57.551Z,35.20
2018-07-27T14:21:24.989Z,35.30
2018-07-27T14:23:52.435Z,35.30
2018-07-27T14:26:20.129Z,35.20
2018-07-27T14:28:47.749Z,35.10
2018-07-27T14:31:15.189Z,35.10
2018-07-27T14:33:42.620Z,35.10
2018-07-27T14:36:10.053Z,35.10
2018-07-27T14:38:37.480Z,35.10
2018-07-27T14:41:04.916Z,35.10
2018-07-27T14:43:32.477Z,35.10
2018-07-27T14:45:59.916Z,34.90
2018-07-27T14:48:27.361Z,34.90
2018-07-27T14:50:54.824Z,34.90
2018-07-27T14:53:22.249Z,35.00
2018-07-27T14:55:49.692Z,35.00
2018-07-27T14:58:17.121Z,35.00
2018-07-27T15:00:44.607Z,34.90
2018-07-27T15:03:12.033Z,34.80
2018-07-27T15:05:39.493Z,34.70
2018-07-27T15:08:06.917Z,34.70
2018-07-27T15:10:34.432Z,34.60
2018-07-27T15:13:01.877Z,34.50
2018-07-27T15:15:29.317Z,34.50
2018-07-27T15:17:56.873Z,34.50
2018-07-27T15:20:24.497Z,34.60
2018-07-27T15:22:51.930Z,34.60
2018-07-27T15:25:20.549Z,34.50
2018-07-27T15:27:49.206Z,34.50
2018-07-27T15:30:16.871Z,34.60
2018-07-27T15:32:44.553Z,34.60
2018-07-27T15:35:12.117Z,34.50
2018-07-27T15:37:46.209Z,34.40
2018-07-27T15:40:13.807Z,34.50
2018-07-27T15:42:41.231Z,34.40
2018-07-27T15:45:08.644Z,34.50
2018-07-27T15:47:36.340Z,34.40
2018-07-27T15:50:04.412Z,34.50
2018-07-27T15:52:32.033Z,34.40
2018-07-27T15:54:59.485Z,34.40
2018-07-27T15:57:26.900Z,34.60
2018-07-27T15:59:54.497Z,34.50
2018-07-27T16:02:21.917Z,34.60
2018-07-27T16:07:16.655Z,34.60
2018-07-27T16:09:44.074Z,34.50
2018-07-27T16:12:11.685Z,34.60
2018-07-27T16:14:39.106Z,34.20
2018-07-27T16:17:06.546Z,34.30
2018-07-27T16:19:34.138Z,34.30
2018-07-27T16:22:01.570Z,34.30
2018-07-27T16:26:56.945Z,34.30
2018-07-27T16:29:24.509Z,34.40
2018-07-27T16:31:52.088Z,34.40
2018-07-27T16:34:19.525Z,34.50
2018-07-27T16:36:47.005Z,34.40
2018-07-27T16:39:14.481Z,34.50
2018-07-27T16:41:41.902Z,34.30
2018-07-27T16:44:09.359Z,34.30
2018-07-27T16:46:36.795Z,34.40
2018-07-27T16:49:04.585Z,34.40
2018-07-27T16:51:33.346Z,34.30
2018-07-27T16:54:00.876Z,34.30
2018-07-27T16:56:28.481Z,34.40
2018-07-27T16:58:55.921Z,34.40
2018-07-27T17:01:23.379Z,34.40
2018-07-27T17:03:50.817Z,34.40
2018-07-27T17:06:18.315Z,34.40
2018-07-27T17:08:45.700Z,34.40
2018-07-27T17:11:13.152Z,34.50
2018-07-27T17:13:41.171Z,34.50
2018-07-27T17:16:09.396Z,34.50
2018-07-27T17:18:37.072Z,34.40
2018-07-27T17:21:04.586Z,34.40
2018-07-27T17:23:32.149Z,34.40
2018-07-27T17:25:59.641Z,34.20
2018-07-27T17:28:27.174Z,34.20
2018-07-27T17:30:54.578Z,34.00
2018-07-27T17:33:22.084Z,34.00
2018-07-27T17:35:49.576Z,34.00
2018-07-27T17:38:17.036Z,34.00
2018-07-27T17:40:44.497Z,34.00
2018-07-27T17:43:11.929Z,34.00
2018-07-27T17:45:39.356Z,34.00
2018-07-27T17:48:06.972Z,34.10
2018-07-27T17:50:34.412Z,34.00
2018-07-27T17:53:01.846Z,33.80
2018-07-27T17:55:29.272Z,33.80
2018-07-27T17:57:56.729Z,33.80
2018-07-27T18:00:24.564Z,33.90
2018-07-27T18:02:52.185Z,33.90
2018-07-27T18:05:19.662Z,34.00
2018-07-27T18:07:47.240Z,33.90
2018-07-27T18:10:14.506Z,33.90
2018-07-27T18:12:41.937Z,33.80
2018-07-27T18:15:09.372Z,33.80
2018-07-27T18:17:36.961Z,33.60
2018-07-27T18:20:05.732Z,33.50
2018-07-27T18:22:33.181Z,33.40
2018-07-27T18:25:00.761Z,33.30
2018-07-27T18:27:28.301Z,33.20
2018-07-27T18:29:55.738Z,33.00
2018-07-27T18:32:23.252Z,32.90
2018-07-27T18:34:50.753Z,32.80
2018-07-27T18:37:18.194Z,32.50
2018-07-27T18:39:45.858Z,32.40
2018-07-27T18:42:13.420Z,32.30
2018-07-27T18:44:40.878Z,32.20
2018-07-27T18:47:08.306Z,32.10
2018-07-27T18:52:02.945Z,31.80
2018-07-27T18:54:30.508Z,31.60
2018-07-27T18:56:57.957Z,31.50
2018-07-27T18:59:25.444Z,31.40
2018-07-27T19:01:52.877Z,31.10
2018-07-27T19:04:20.313Z,31.00
2018-07-27T19:06:47.736Z,30.90
2018-07-27T19:09:15.173Z,30.80
2018-07-27T19:11:42.697Z,30.80
2018-07-27T19:14:10.537Z,30.70
2018-07-27T19:16:37.985Z,30.60
2018-07-27T19:19:05.461Z,30.50
2018-07-27T19:21:32.924Z,30.50
2018-07-27T19:24:00.381Z,30.40
2018-07-27T19:26:27.827Z,30.10
2018-07-27T19:28:55.445Z,30.10
2018-07-27T19:31:23.090Z,30.10
2018-07-27T19:33:50.700Z,30.00
2018-07-27T19:36:18.121Z,29.90
2018-07-27T19:38:45.574Z,29.80
2018-07-27T19:41:13.013Z,29.60
2018-07-27T19:43:40.437Z,29.40
2018-07-27T19:46:07.933Z,29.50
2018-07-27T19:48:35.348Z,29.40
2018-07-27T19:51:02.781Z,29.40
2018-07-27T19:53:30.209Z,29.40
2018-07-27T19:55:57.645Z,29.40
2018-07-27T19:58:25.081Z,29.30
2018-07-27T20:00:52.508Z,29.30
2018-07-27T20:03:19.937Z,29.30
2018-07-27T20:05:47.473Z,29.20
2018-07-27T20:08:14.933Z,29.00
2018-07-27T20:10:42.433Z,29.00
2018-07-27T20:13:09.843Z,29.00
2018-07-27T20:15:37.205Z,28.90
2018-07-27T20:18:04.649Z,28.80
2018-07-27T20:20:32.083Z,28.80
2018-07-27T20:22:59.497Z,28.70
2018-07-27T20:25:27.041Z,28.60
2018-07-27T20:27:54.516Z,28.60
2018-07-27T20:30:22.041Z,28.60
2018-07-27T20:32:49.489Z,28.50
2018-07-27T20:35:16.934Z,28.50
2018-07-27T20:40:11.618Z,28.50
2018-07-27T20:42:39.049Z,28.50
2018-07-27T20:45:06.588Z,28.50
2018-07-27T20:47:34.032Z,28.50
2018-07-27T20:50:01.470Z,28.50
2018-07-27T20:52:28.910Z,28.50
2018-07-27T20:54:56.423Z,28.50
2018-07-27T20:57:23.845Z,28.50
2018-07-27T20:59:51.333Z,28.50
2018-07-27T21:02:18.744Z,28.40
2018-07-27T21:04:46.250Z,28.40
2018-07-27T21:07:13.675Z,28.30
2018-07-27T21:09:41.160Z,28.40
2018-07-27T21:12:08.633Z,28.20
2018-07-27T21:14:36.173Z,28.30
2018-07-27T21:17:04.653Z,28.20
2018-07-27T21:19:32.233Z,28.20
2018-07-27T21:21:59.799Z,28.20
2018-07-27T21:24:28.380Z,28.30
2018-07-27T21:26:55.921Z,28.30
2018-07-27T21:29:23.480Z,28.20
2018-07-27T21:31:50.930Z,28.20
2018-07-27T21:34:18.709Z,28.20
2018-07-27T21:36:46.262Z,28.10
2018-07-27T21:39:13.997Z,28.00
2018-07-27T21:41:41.549Z,27.90
2018-07-27T21:46:36.228Z,27.80
2018-07-27T21:49:04.006Z,27.70
2018-07-27T21:51:31.448Z,27.70
2018-07-27T21:53:58.908Z,27.30
2018-07-27T21:56:26.325Z,27.10
2018-07-27T21:58:53.776Z,27.10
2018-07-27T22:01:21.216Z,27.10
2018-07-27T22:03:48.645Z,27.00
2018-07-27T22:06:16.157Z,26.90
2018-07-27T22:08:43.565Z,26.70
2018-07-27T22:11:11.006Z,26.60
2018-07-27T22:13:38.526Z,26.60
2018-07-27T22:16:05.972Z,26.40
2018-07-27T22:18:33.406Z,26.10
2018-07-27T22:21:00.850Z,25.90
2018-07-27T22:23:28.362Z,25.90
2018-07-27T22:25:55.805Z,25.80
2018-07-27T22:28:23.248Z,25.80
2018-07-27T22:30:50.878Z,25.80
2018-07-27T22:33:18.305Z,25.70
2018-07-27T22:35:45.744Z,25.60
2018-07-27T22:38:13.159Z,25.50
2018-07-27T22:40:40.652Z,25.50
2018-07-27T22:43:08.031Z,25.30
2018-07-27T22:45:35.642Z,25.30
2018-07-27T22:48:03.113Z,25.20
2018-07-27T22:50:30.553Z,25.10
2018-07-27T22:52:57.979Z,25.10
2018-07-27T22:55:25.422Z,24.90
2018-07-27T22:57:52.857Z,24.80
2018-07-27T23:00:20.439Z,24.80
2018-07-27T23:02:47.889Z,24.80
2018-07-27T23:05:15.343Z,24.70
2018-07-27T23:07:42.828Z,24.70
2018-07-27T23:10:10.824Z,24.70
2018-07-27T23:12:38.657Z,24.60
2018-07-27T23:15:07.000Z,24.70
2018-07-27T23:17:34.447Z,24.70
2018-07-27T23:20:01.896Z,24.70
2018-07-27T23:22:29.388Z,24.80
2018-07-27T23:24:56.898Z,24.70
2018-07-27T23:27:24.361Z,24.70
2018-07-27T23:29:51.804Z,24.70
2018-07-27T23:32:19.470Z,24.70
2018-07-27T23:34:46.892Z,24.60
2018-07-27T23:37:14.337Z,24.70
2018-07-27T23:39:41.779Z,24.70
2018-07-27T23:42:09.226Z,24.70
2018-07-27T23:44:36.701Z,24.80
2018-07-27T23:47:04.134Z,24.60
2018-07-27T23:49:31.574Z,24.60
2018-07-27T23:51:59.006Z,24.60
2018-07-27T23:54:26.445Z,24.50
2018-07-27T23:56:53.912Z,24.50
2018-07-27T23:59:21.345Z,24.60
